Ambler Airport

Airport
ICAO code: 
PAFM
IATA Code: 
ABL
Summary
ICAO Region: 
NAM
Territory: 
Location: 
Ambler, Alaska
Serving: 
Ambler
Elevation: 
334 ft
Coordinates: 
Aerial View: 
67° 6' 23" N, 157° 51' 27" W
Metar
Observation
PAFM 270756Z AUTO 00000KT 10SM CLR M30/M33 A3014 RMK AO2 SLP224 T13001333 412611339 FZRANO
Station
Ambler, Ambler Airport
Date/Time
2021-11-27 07:56:00
Wind direction
Wind speed
00 kts
Lowest cloud amount
n/a
Temperature
-30°C
Dew point
-33.3°C
Humidity
72%
Weather condition
n/a

Runways

Designator Length Width Surface Rops
9/27 732 18 GVL No/No
18/36 914 18 GVL No/No
Airport map: 
Aerial View: 

SKYbrary Partners:

Safety knowledge contributed by: